Strona główna
METAR-TAF:

METAR-TAF

Lotnisko :

Port lotniczy Valdivia-Pichoy

Valdivia, Chile

Szerokość geograficzna: 39-37S, Długość geograficzna: 073-05W, wysokość: 19 m

Aktualna obserwacja pogody

Raport powstał 35 minut temu, godzina 13:00 UTC
Wiatr 6 kt od północny wschód
Temperatura 8°C
Wilgotność 100%
Ciśnienie 1004 hPa
Widzialność 10 km lub więcej
Rozproszone chmury na wysokości 2400 ft
Przerywane chmury na wysokości 3600 ft
Przerywane chmury na wysokości 5900 ft

METAR: SCVD 211300Z 05006KT 9999 SCT024 BKN036 BKN059 08/08 Q1004

czas: 09:35 (13:35 UTC)

Prognoza

Raport powstał 2 godziny i 37 minut temu, godzina 10:58 UTC
Prognoza ważna od 21 godzina 12 UTC do 21 godzina 24 UTC
Wiatr 7 kt od północ
Widzialność 10 km lub więcej
Przerywane chmury na wysokości 3500 ft
Przejściowo
od 21 godzina 17 UTC do 21 godzina 22 UTC
Rozproszone chmury na wysokości 2000 ft
Przerywane chmury na wysokości 3500 ft
słaby przelotny opad deszczu,

TAF: SCVD 211058Z 2112/2124 36007KT 9999 BKN035 TN08/2112Z TX11/2118Z TEMPO 2117/2122 -SHRA SCT020 BKN035

Obserwacja i prognoza pogody dla ponad 4000 lotnisk (raport METAR i TAF).

Dostępne stacje oznaczono żółtymi i czerwonymi punktami na mapie.

Najedź kursorem aby zobaczyć nazwę stacji.

Kliknij aby zobaczyć obserwacje i prognozy pogody.

Aby zmienić mapę: kliknij na zielony przycisk z czarnym krzyżykiem, aby powiększyć; na zielony przycisk z myślnikiem, aby pomniejszyć; na zielone strzałki, aby przejść do map sąsiednich.


METAR-TAF: